createdAt,value
2019-05-28T00:00:01.930Z,0
2019-05-28T00:00:51.206Z,0
2019-05-28T00:01:51.304Z,0
2019-05-28T00:02:51.208Z,0
2019-05-28T00:03:51.341Z,0
2019-05-28T00:04:51.267Z,0
2019-05-28T00:05:51.306Z,0
2019-05-28T00:06:51.280Z,0
2019-05-28T00:07:51.271Z,0
2019-05-28T00:08:51.349Z,0
2019-05-28T00:09:51.345Z,0
2019-05-28T00:10:51.273Z,0
2019-05-28T00:11:51.353Z,0
2019-05-28T00:12:51.331Z,0
2019-05-28T00:13:51.294Z,0
2019-05-28T00:14:51.269Z,0
2019-05-28T00:15:51.338Z,0
2019-05-28T00:16:51.262Z,0
2019-05-28T00:17:51.349Z,0
2019-05-28T00:18:51.340Z,0
2019-05-28T00:19:51.350Z,0
2019-05-28T00:20:51.271Z,0
2019-05-28T00:21:51.266Z,0
2019-05-28T00:22:51.273Z,0
2019-05-28T00:23:51.459Z,0
2019-05-28T00:24:51.318Z,0
2019-05-28T00:25:51.359Z,0
2019-05-28T00:26:51.285Z,0
2019-05-28T00:27:51.359Z,0
2019-05-28T00:28:51.251Z,0
2019-05-28T00:29:51.367Z,0
2019-05-28T00:30:51.365Z,0
2019-05-28T00:31:51.380Z,0
2019-05-28T00:32:51.370Z,0
2019-05-28T00:33:51.302Z,0
2019-05-28T00:34:51.293Z,0
2019-05-28T00:35:51.295Z,0
2019-05-28T00:36:51.292Z,0
2019-05-28T00:37:51.398Z,0
2019-05-28T00:38:51.369Z,0
2019-05-28T00:39:51.296Z,0
2019-05-28T00:40:51.295Z,0
2019-05-28T00:41:51.358Z,0
2019-05-28T00:42:51.322Z,0
2019-05-28T00:43:51.471Z,0
2019-05-28T00:44:51.308Z,0
2019-05-28T00:45:51.386Z,0
2019-05-28T00:46:51.383Z,0
2019-05-28T00:47:51.375Z,0
2019-05-28T00:48:51.375Z,0
2019-05-28T00:49:51.374Z,0
2019-05-28T00:50:51.387Z,0
2019-05-28T00:51:51.305Z,0
2019-05-28T00:52:51.384Z,0
2019-05-28T00:53:51.339Z,0
2019-05-28T00:54:51.311Z,0
2019-05-28T00:55:51.322Z,0
2019-05-28T00:56:51.315Z,0
2019-05-28T00:57:51.379Z,0
2019-05-28T00:58:51.383Z,0
2019-05-28T00:59:51.310Z,0
2019-05-28T01:00:51.359Z,0
2019-05-28T01:01:51.386Z,0
2019-05-28T01:02:51.273Z,0
2019-05-28T01:03:51.381Z,0
2019-05-28T01:04:51.391Z,0
2019-05-28T01:05:51.306Z,0
2019-05-28T01:06:51.403Z,0
2019-05-28T01:07:51.376Z,0
2019-05-28T01:08:51.437Z,0
2019-05-28T01:09:51.379Z,0
2019-05-28T01:10:51.308Z,0
2019-05-28T01:11:51.381Z,0
2019-05-28T01:12:51.309Z,0
2019-05-28T01:13:51.325Z,0
2019-05-28T01:14:51.210Z,0
2019-05-28T01:15:51.230Z,0
2019-05-28T01:16:51.319Z,0
2019-05-28T01:17:51.275Z,0
2019-05-28T01:18:51.332Z,0
2019-05-28T01:19:51.387Z,0
2019-05-28T01:20:51.274Z,0
2019-05-28T01:21:51.337Z,0
2019-05-28T01:22:51.305Z,0
2019-05-28T01:23:51.403Z,0
2019-05-28T01:24:51.333Z,0
2019-05-28T01:25:51.402Z,0
2019-05-28T01:26:51.408Z,0
2019-05-28T01:27:51.332Z,0
2019-05-28T01:28:51.339Z,0
2019-05-28T01:29:51.405Z,0
2019-05-28T01:30:57.754Z,0
2019-05-28T01:31:51.349Z,0
2019-05-28T01:32:51.339Z,0
2019-05-28T01:33:51.352Z,0
2019-05-28T01:34:51.418Z,0
2019-05-28T01:35:51.359Z,0
2019-05-28T01:36:51.416Z,0
2019-05-28T01:37:51.359Z,0
2019-05-28T01:38:51.355Z,0
2019-05-28T01:39:51.435Z,0
2019-05-28T01:40:51.450Z,0
2019-05-28T01:41:51.438Z,0
2019-05-28T01:42:51.428Z,0
2019-05-28T01:43:51.352Z,0
2019-05-28T01:44:51.359Z,0
2019-05-28T01:45:51.310Z,0
2019-05-28T01:46:51.364Z,0
2019-05-28T01:47:51.383Z,0
2019-05-28T01:48:51.419Z,0
2019-05-28T01:49:51.432Z,0
2019-05-28T01:50:51.459Z,0
2019-05-28T01:51:51.423Z,0
2019-05-28T01:52:51.359Z,0
2019-05-28T01:53:51.349Z,0
2019-05-28T01:54:51.361Z,0
2019-05-28T01:55:51.355Z,0
2019-05-28T01:56:51.415Z,0
2019-05-28T01:57:51.371Z,0
2019-05-28T01:58:51.430Z,0
2019-05-28T01:59:51.354Z,0
2019-05-28T02:00:51.427Z,0
2019-05-28T02:01:51.359Z,0
2019-05-28T02:02:51.396Z,0
2019-05-28T02:03:51.371Z,0
2019-05-28T02:04:51.402Z,0
2019-05-28T02:05:51.449Z,0
2019-05-28T02:06:51.533Z,0
2019-05-28T02:07:51.441Z,0
2019-05-28T02:08:51.448Z,0
2019-05-28T02:09:51.366Z,0
2019-05-28T02:10:51.423Z,0
2019-05-28T02:11:51.370Z,0
2019-05-28T02:12:51.443Z,0
2019-05-28T02:13:51.444Z,0
2019-05-28T02:14:51.367Z,0
2019-05-28T02:15:51.451Z,0
2019-05-28T02:16:51.381Z,0
2019-05-28T02:17:51.337Z,0
2019-05-28T02:18:51.443Z,0
2019-05-28T02:19:51.371Z,0
2019-05-28T02:20:51.447Z,0
2019-05-28T02:21:51.465Z,0
2019-05-28T02:22:51.386Z,0
2019-05-28T02:23:51.347Z,0
2019-05-28T02:24:51.500Z,0
2019-05-28T02:25:51.522Z,0
2019-05-28T02:26:51.375Z,0
2019-05-28T02:27:51.449Z,0
2019-05-28T02:29:51.446Z,4
2019-05-28T02:30:51.454Z,4
2019-05-28T02:31:51.449Z,4
2019-05-28T02:32:51.411Z,4
2019-05-28T02:33:51.455Z,4
2019-05-28T02:34:51.455Z,4
2019-05-28T02:35:51.479Z,4
2019-05-28T02:36:51.404Z,4
2019-05-28T02:37:51.456Z,8
2019-05-28T02:38:51.522Z,8
2019-05-28T02:39:51.387Z,8
2019-05-28T02:40:51.551Z,8
2019-05-28T02:41:51.463Z,12
2019-05-28T02:42:51.456Z,12
2019-05-28T02:43:51.445Z,12
2019-05-28T02:44:51.382Z,16
2019-05-28T02:45:51.380Z,20
2019-05-28T02:46:51.460Z,20
2019-05-28T02:47:51.379Z,20
2019-05-28T02:48:51.452Z,24
2019-05-28T02:49:51.387Z,28
2019-05-28T02:50:51.457Z,36
2019-05-28T02:51:51.390Z,40
2019-05-28T02:52:51.393Z,48
2019-05-28T02:53:51.385Z,56
2019-05-28T02:54:51.459Z,64
2019-05-28T02:55:51.455Z,68
2019-05-28T02:56:51.388Z,76
2019-05-28T02:57:51.413Z,88
2019-05-28T02:58:51.461Z,100
2019-05-28T02:59:51.395Z,108
2019-05-28T03:00:51.504Z,124
2019-05-28T03:01:51.390Z,136
2019-05-28T03:02:51.461Z,152
2019-05-28T03:03:51.431Z,172
2019-05-28T03:04:51.415Z,192
2019-05-28T03:05:51.533Z,208
2019-05-28T03:06:51.472Z,228
2019-05-28T03:07:51.488Z,252
2019-05-28T03:08:51.378Z,272
2019-05-28T03:09:51.418Z,304
2019-05-28T03:11:02.477Z,328
2019-05-28T03:11:51.408Z,356
2019-05-28T03:12:51.528Z,384
2019-05-28T03:13:51.478Z,420
2019-05-28T03:14:51.421Z,464
2019-05-28T03:15:51.441Z,512
2019-05-28T03:16:51.502Z,556
2019-05-28T03:17:51.497Z,608
2019-05-28T03:18:51.418Z,664
2019-05-28T03:19:51.429Z,724
2019-05-28T03:20:51.377Z,780
2019-05-28T03:21:51.423Z,844
2019-05-28T03:22:51.414Z,908
2019-05-28T03:23:51.417Z,984
2019-05-28T03:24:51.497Z,1056
2019-05-28T03:25:51.503Z,1136
2019-05-28T03:26:51.517Z,1216
2019-05-28T03:27:51.495Z,1296
2019-05-28T03:28:51.497Z,1380
2019-05-28T03:29:51.495Z,1464
2019-05-28T03:30:51.494Z,1552
2019-05-28T03:32:07.304Z,1636
2019-05-28T03:32:51.530Z,1720
2019-05-28T03:33:51.507Z,1808
2019-05-28T03:34:51.409Z,1900
2019-05-28T03:35:51.489Z,1988
2019-05-28T03:36:51.518Z,2096
2019-05-28T03:37:51.452Z,2188
2019-05-28T03:38:51.413Z,2288
2019-05-28T03:39:51.370Z,2384
2019-05-28T03:40:51.415Z,2472
2019-05-28T03:41:51.395Z,2548
2019-05-28T03:42:51.399Z,2620
2019-05-28T03:43:51.376Z,2680
2019-05-28T03:44:51.505Z,2748
2019-05-28T03:45:51.504Z,2800
2019-05-28T03:46:51.438Z,2840
2019-05-28T03:47:51.508Z,2860
2019-05-28T03:48:51.518Z,2884
2019-05-28T03:49:51.528Z,2896
2019-05-28T03:50:51.435Z,2916
2019-05-28T03:51:51.507Z,2944
2019-05-28T03:52:51.451Z,2992
2019-05-28T03:53:51.498Z,3080
2019-05-28T03:54:51.439Z,3180
2019-05-28T03:55:51.507Z,3316
2019-05-28T03:56:51.522Z,3476
2019-05-28T03:57:51.512Z,3656
2019-05-28T03:58:51.395Z,3848
2019-05-28T03:59:51.443Z,4048
2019-05-28T04:00:51.453Z,4256
2019-05-28T04:01:51.475Z,4476
2019-05-28T04:02:51.470Z,4684
2019-05-28T04:03:51.489Z,4904
2019-05-28T04:04:51.439Z,5100
2019-05-28T04:05:51.462Z,5288
2019-05-28T04:06:51.488Z,5460
2019-05-28T04:07:51.375Z,5628
2019-05-28T04:08:51.458Z,5820
2019-05-28T04:09:51.489Z,6032
2019-05-28T04:10:51.464Z,6252
2019-05-28T04:11:51.460Z,6464
2019-05-28T04:12:51.466Z,6620
2019-05-28T04:13:51.472Z,6736
2019-05-28T04:14:51.530Z,6848
2019-05-28T04:15:51.529Z,6988
2019-05-28T04:16:51.515Z,7176
2019-05-28T04:17:51.501Z,7416
2019-05-28T04:18:51.482Z,7700
2019-05-28T04:19:51.541Z,8008
2019-05-28T04:20:51.528Z,8316
2019-05-28T04:21:51.471Z,8668
2019-05-28T04:22:51.539Z,8976
2019-05-28T04:23:51.468Z,9256
2019-05-28T04:24:51.500Z,9480
2019-05-28T04:25:51.533Z,9692
2019-05-28T04:26:51.531Z,9928
2019-05-28T04:27:51.493Z,10136
2019-05-28T04:28:51.538Z,10368
2019-05-28T04:29:51.672Z,10548
2019-05-28T04:30:51.469Z,10680
2019-05-28T04:31:51.466Z,10768
2019-05-28T04:32:51.546Z,10852
2019-05-28T04:33:51.472Z,10956
2019-05-28T04:34:51.539Z,11192
2019-05-28T04:35:51.472Z,11480
2019-05-28T04:36:51.536Z,11800
2019-05-28T04:37:51.513Z,12084
2019-05-28T04:38:51.500Z,12180
2019-05-28T04:39:51.539Z,12176
2019-05-28T04:40:51.550Z,12108
2019-05-28T04:41:51.475Z,12156
2019-05-28T04:42:51.484Z,12268
2019-05-28T04:43:51.512Z,12272
2019-05-28T04:44:51.531Z,12332
2019-05-28T04:45:51.487Z,12468
2019-05-28T04:46:51.480Z,12668
2019-05-28T04:47:51.545Z,12876
2019-05-28T04:48:51.485Z,13128
2019-05-28T04:49:51.548Z,13328
2019-05-28T04:50:51.499Z,13716
2019-05-28T04:51:51.552Z,14080
2019-05-28T04:52:51.488Z,14756
2019-05-28T04:53:51.556Z,15236
2019-05-28T04:54:51.495Z,15532
2019-05-28T04:55:51.563Z,15720
2019-05-28T04:56:51.559Z,15688
2019-05-28T04:57:51.552Z,15612
2019-05-28T04:58:51.486Z,15540
2019-05-28T04:59:51.625Z,15628
2019-05-28T05:00:51.561Z,15920
2019-05-28T05:01:51.566Z,16428
2019-05-28T05:02:59.540Z,17068
2019-05-28T05:03:51.568Z,17700
2019-05-28T05:04:51.504Z,18192
2019-05-28T05:05:51.635Z,18444
2019-05-28T05:06:51.587Z,18576
2019-05-28T05:07:51.563Z,18620
2019-05-28T05:08:51.569Z,18636
2019-05-28T05:09:51.462Z,18628
2019-05-28T05:10:51.569Z,18600
2019-05-28T05:11:51.568Z,18500
2019-05-28T05:12:51.496Z,18384
2019-05-28T05:13:51.575Z,18252
2019-05-28T05:14:51.569Z,18124
2019-05-28T05:15:51.460Z,17996
2019-05-28T05:16:51.589Z,17908
2019-05-28T05:17:51.570Z,17908
2019-05-28T05:18:51.562Z,18092
2019-05-28T05:19:51.633Z,18276
2019-05-28T05:20:51.574Z,18308
2019-05-28T05:21:51.487Z,18216
2019-05-28T05:22:51.506Z,18100
2019-05-28T05:23:51.506Z,17936
2019-05-28T05:24:51.492Z,17852
2019-05-28T05:25:51.494Z,17808
2019-05-28T05:26:53.048Z,17844
2019-05-28T05:27:51.523Z,17836
2019-05-28T05:28:51.500Z,18016
2019-05-28T05:29:51.498Z,18172
2019-05-28T05:30:51.494Z,18184
2019-05-28T05:31:51.580Z,18148
2019-05-28T05:32:51.482Z,18296
2019-05-28T05:33:51.573Z,18272
2019-05-28T05:34:51.523Z,18116
2019-05-28T05:35:51.517Z,18136
2019-05-28T05:36:51.583Z,18168
2019-05-28T05:37:51.529Z,18268
2019-05-28T05:38:51.531Z,18092
2019-05-28T05:39:51.604Z,17868
2019-05-28T05:40:51.592Z,17564
2019-05-28T05:41:51.523Z,17176
2019-05-28T05:42:51.521Z,16924
2019-05-28T05:43:51.525Z,16908
2019-05-28T05:44:51.597Z,16888
2019-05-28T05:45:51.594Z,17376
2019-05-28T05:46:51.535Z,17760
2019-05-28T05:47:51.630Z,18196
2019-05-28T05:48:51.656Z,18812
2019-05-28T05:49:51.536Z,19404
2019-05-28T05:50:51.535Z,19896
2019-05-28T05:51:51.598Z,20380
2019-05-28T05:52:51.531Z,20984
2019-05-28T05:53:51.697Z,22368
2019-05-28T05:54:51.589Z,23424
2019-05-28T05:55:51.514Z,23936
2019-05-28T05:56:51.517Z,25280
2019-05-28T05:57:51.593Z,27168
2019-05-28T05:58:51.604Z,25216
2019-05-28T05:59:51.592Z,22528
2019-05-28T06:00:51.520Z,21496
2019-05-28T06:01:51.614Z,22528
2019-05-28T06:02:51.593Z,20680
2019-05-28T06:03:51.527Z,17752
2019-05-28T06:04:51.600Z,17992
2019-05-28T06:05:51.555Z,17452
2019-05-28T06:06:51.605Z,17396
2019-05-28T06:07:51.546Z,17800
2019-05-28T06:08:51.542Z,18580
2019-05-28T06:09:51.646Z,19516
2019-05-28T06:10:51.661Z,20440
2019-05-28T06:11:51.547Z,22688
2019-05-28T06:12:51.539Z,25152
2019-05-28T06:13:51.544Z,26112
2019-05-28T06:14:51.663Z,26432
2019-05-28T06:15:51.549Z,27360
2019-05-28T06:16:51.565Z,29696
2019-05-28T06:17:51.486Z,31168
2019-05-28T06:18:51.568Z,31424
2019-05-28T06:19:51.547Z,30176
2019-05-28T06:21:06.344Z,30048
2019-05-28T06:21:51.510Z,32896
2019-05-28T06:22:51.599Z,34784
2019-05-28T06:23:51.571Z,35392
2019-05-28T06:24:51.537Z,36864
2019-05-28T06:25:51.498Z,34624
2019-05-28T06:26:51.622Z,30880
2019-05-28T06:27:51.539Z,30400
2019-05-28T06:28:51.618Z,30688
2019-05-28T06:29:51.645Z,34304
2019-05-28T06:30:51.564Z,34624
2019-05-28T06:31:51.620Z,35808
2019-05-28T06:32:51.544Z,42144
2019-05-28T06:33:56.802Z,41024
2019-05-28T06:34:51.558Z,35232
2019-05-28T06:35:51.638Z,40192
2019-05-28T06:36:51.635Z,35264
2019-05-28T06:37:51.624Z,38784
2019-05-28T06:38:51.545Z,44512
2019-05-28T06:39:51.620Z,46272
2019-05-28T06:40:51.666Z,48000
2019-05-28T06:41:51.625Z,56640
2019-05-28T06:42:51.626Z,53376
2019-05-28T06:43:51.553Z,57056
2019-05-28T06:44:51.574Z,58112
2019-05-28T06:45:51.550Z,63872
2019-05-28T06:46:51.640Z,70368
2019-05-28T06:47:51.568Z,77056
2019-05-28T06:48:51.557Z,88992
2019-05-28T06:49:51.633Z,85120
2019-05-28T06:50:51.559Z,86048
2019-05-28T06:51:51.632Z,86240
2019-05-28T06:52:51.632Z,73792
2019-05-28T06:53:51.632Z,73888
2019-05-28T06:54:51.674Z,79232
2019-05-28T06:55:51.645Z,68832
2019-05-28T06:56:51.576Z,65504
2019-05-28T06:57:51.651Z,67776
2019-05-28T06:58:51.607Z,67840
2019-05-28T06:59:51.597Z,69152
2019-05-28T07:00:51.647Z,73792
2019-05-28T07:01:51.534Z,70560
2019-05-28T07:02:51.651Z,85056
2019-05-28T07:03:51.649Z,70880
2019-05-28T07:04:51.589Z,69152
2019-05-28T07:06:05.642Z,69312
2019-05-28T07:06:51.639Z,69376
2019-05-28T07:07:51.612Z,84640
2019-05-28T07:08:51.637Z,79360
2019-05-28T07:09:51.572Z,83424
2019-05-28T07:10:57.623Z,90400
2019-05-28T07:11:51.577Z,82688
2019-05-28T07:12:51.574Z,88000
2019-05-28T07:13:51.648Z,76416
2019-05-28T07:14:51.664Z,90976
2019-05-28T07:15:51.533Z,76480
2019-05-28T07:16:53.613Z,85120
2019-05-28T07:17:51.599Z,78752
2019-05-28T07:18:51.650Z,79296
2019-05-28T07:19:51.649Z,101888
2019-05-28T07:20:51.656Z,91008
2019-05-28T07:21:51.648Z,104576
2019-05-28T07:22:51.721Z,107584
2019-05-28T07:23:51.539Z,107904
2019-05-28T07:24:51.665Z,105920
2019-05-28T07:25:51.701Z,106816
2019-05-28T07:26:51.598Z,107808
2019-05-28T07:28:07.203Z,110080
2019-05-28T07:28:51.730Z,113472
2019-05-28T07:29:51.621Z,112576
2019-05-28T07:30:51.597Z,109280
2019-05-28T07:31:51.604Z,105536
2019-05-28T07:32:51.600Z,100032
2019-05-28T07:33:51.676Z,91680
2019-05-28T07:34:51.696Z,82656
2019-05-28T07:35:51.609Z,72832
2019-05-28T07:36:51.663Z,66432
2019-05-28T07:37:51.576Z,63232
2019-05-28T07:38:51.598Z,60512
2019-05-28T07:39:51.591Z,57984
2019-05-28T07:40:51.588Z,56320
2019-05-28T07:41:51.661Z,55232
2019-05-28T07:42:51.669Z,54880
2019-05-28T07:43:51.597Z,55200
2019-05-28T07:44:51.668Z,55552
2019-05-28T07:45:51.671Z,57024
2019-05-28T07:46:51.594Z,57248
2019-05-28T07:47:51.596Z,58848
2019-05-28T07:48:51.673Z,58816
2019-05-28T07:49:51.598Z,59040
2019-05-28T07:50:51.671Z,62656
2019-05-28T07:51:51.616Z,63712
2019-05-28T07:52:51.601Z,57824
2019-05-28T07:53:51.676Z,56224
2019-05-28T07:54:51.701Z,56160
2019-05-28T07:55:51.619Z,60672
2019-05-28T07:56:51.696Z,66464
2019-05-28T07:57:51.624Z,60928
2019-05-28T07:58:51.642Z,63136
2019-05-28T07:59:51.688Z,57792
2019-05-28T08:00:51.628Z,55552
2019-05-28T08:01:51.701Z,53536
2019-05-28T08:02:51.631Z,53376
2019-05-28T08:03:51.626Z,54976
2019-05-28T08:04:51.691Z,60032
2019-05-28T08:05:51.628Z,61408
2019-05-28T08:06:54.977Z,63168
2019-05-28T08:07:51.693Z,64864
2019-05-28T08:08:51.625Z,65120
2019-05-28T08:09:51.707Z,65056
2019-05-28T08:10:51.643Z,65888
2019-05-28T08:11:51.628Z,67776
2019-05-28T08:12:51.720Z,69120
2019-05-28T08:13:52.588Z,70944
2019-05-28T08:14:51.634Z,71808
2019-05-28T08:15:51.700Z,76256
2019-05-28T08:16:52.937Z,79488
2019-05-28T08:17:51.702Z,83936
2019-05-28T08:18:51.704Z,88800
2019-05-28T08:19:51.634Z,96992
2019-05-28T08:20:51.706Z,100096
2019-05-28T08:21:51.744Z,99072
2019-05-28T08:22:51.650Z,99904
2019-05-28T08:23:51.707Z,97344
2019-05-28T08:24:54.869Z,95488
2019-05-28T08:25:51.650Z,98272
2019-05-28T08:26:51.774Z,100064
2019-05-28T08:27:51.789Z,98976
2019-05-28T08:28:51.642Z,94496
2019-05-28T08:29:51.642Z,86016
2019-05-28T08:30:51.839Z,92288
2019-05-28T08:31:51.714Z,101728
2019-05-28T08:32:51.653Z,100800
2019-05-28T08:33:51.650Z,103936
2019-05-28T08:35:04.939Z,104128
2019-05-28T08:35:51.917Z,106272
2019-05-28T08:37:05.290Z,107936
2019-05-28T08:37:51.723Z,103232
2019-05-28T08:38:51.657Z,101504
2019-05-28T08:39:51.680Z,99712
2019-05-28T08:40:51.728Z,102112
2019-05-28T08:41:51.657Z,100832
2019-05-28T08:42:51.736Z,93120
2019-05-28T08:43:51.799Z,91776
2019-05-28T08:44:51.638Z,88224
2019-05-28T08:45:51.734Z,87680
2019-05-28T08:46:51.628Z,84288
2019-05-28T08:47:51.717Z,81664
2019-05-28T08:48:51.724Z,89184
2019-05-28T08:49:51.686Z,98560
2019-05-28T08:50:51.643Z,106624
2019-05-28T08:51:51.645Z,116064
2019-05-28T08:52:51.632Z,121760
2019-05-28T08:53:51.742Z,132480
2019-05-28T08:54:51.719Z,127584
2019-05-28T08:55:51.671Z,128512
2019-05-28T08:56:51.655Z,123616
2019-05-28T08:57:51.725Z,114080
2019-05-28T08:58:51.656Z,111680
2019-05-28T08:59:51.639Z,102784
2019-05-28T09:00:51.725Z,101920
2019-05-28T09:01:51.725Z,101312
2019-05-28T09:02:51.986Z,102848
2019-05-28T09:03:51.666Z,110528
2019-05-28T09:04:51.638Z,115552
2019-05-28T09:05:51.651Z,112256
2019-05-28T09:06:51.726Z,113600
2019-05-28T09:07:51.735Z,114304
2019-05-28T09:08:51.747Z,108928
2019-05-28T09:09:51.737Z,103008
2019-05-28T09:10:51.649Z,99360
2019-05-28T09:11:51.658Z,98560
2019-05-28T09:12:51.732Z,93376
2019-05-28T09:13:51.657Z,89760
2019-05-28T09:14:56.329Z,87520
2019-05-28T09:15:51.638Z,86848
2019-05-28T09:16:51.757Z,87296
2019-05-28T09:17:51.753Z,85664
2019-05-28T09:18:51.685Z,84256
2019-05-28T09:19:51.684Z,80864
2019-05-28T09:20:51.766Z,80832
2019-05-28T09:21:51.698Z,80640
2019-05-28T09:22:51.981Z,73344
2019-05-28T09:23:51.699Z,72128
2019-05-28T09:24:51.685Z,75616
2019-05-28T09:25:51.798Z,76416
2019-05-28T09:26:51.762Z,76352
2019-05-28T09:27:51.785Z,93184
2019-05-28T09:28:51.771Z,100992
2019-05-28T09:29:51.767Z,104256
2019-05-28T09:30:51.696Z,104992
2019-05-28T09:31:51.694Z,105728
2019-05-28T09:32:51.717Z,78304
2019-05-28T09:33:51.760Z,120384
2019-05-28T09:34:51.697Z,138208
2019-05-28T09:36:07.268Z,151776
2019-05-28T09:36:51.694Z,101216
2019-05-28T09:37:51.695Z,143360
2019-05-28T09:38:51.766Z,135424
2019-05-28T09:39:51.774Z,129600
2019-05-28T09:40:51.796Z,96096
2019-05-28T09:41:51.701Z,95808
2019-05-28T09:42:51.741Z,104512
2019-05-28T09:43:51.768Z,92032
2019-05-28T09:44:51.693Z,128896
2019-05-28T09:45:51.792Z,128896
2019-05-28T09:46:51.773Z,132864
2019-05-28T09:47:55.055Z,134688
2019-05-28T09:48:51.706Z,131968
2019-05-28T09:49:51.872Z,132576
2019-05-28T09:50:52.065Z,130368
2019-05-28T09:51:51.724Z,130912
2019-05-28T09:52:55.014Z,132832
2019-05-28T09:53:51.774Z,129824
2019-05-28T09:54:51.707Z,131232
2019-05-28T09:55:51.778Z,133664
2019-05-28T09:56:51.809Z,91744
2019-05-28T09:57:51.720Z,143936
2019-05-28T09:58:51.777Z,136864
2019-05-28T09:59:51.713Z,136384
2019-05-28T10:00:58.332Z,134752
2019-05-28T10:01:51.784Z,132192
2019-05-28T10:02:51.790Z,130688
2019-05-28T10:03:51.841Z,130496
2019-05-28T10:04:51.825Z,128832
2019-05-28T10:06:01.920Z,125216
2019-05-28T10:06:51.653Z,123808
2019-05-28T10:07:51.716Z,120416
2019-05-28T10:08:51.764Z,125216
2019-05-28T10:09:51.658Z,121728
2019-05-28T10:10:51.776Z,115168
2019-05-28T10:11:51.748Z,98848
2019-05-28T10:12:51.679Z,70720
2019-05-28T10:13:51.722Z,65504
2019-05-28T10:14:51.655Z,61792
2019-05-28T10:15:51.739Z,58752
2019-05-28T10:16:51.729Z,56320
2019-05-28T10:17:51.788Z,54656
2019-05-28T10:18:51.748Z,53440
2019-05-28T10:19:51.792Z,52608
2019-05-28T10:20:51.730Z,52992
2019-05-28T10:21:51.803Z,55008
2019-05-28T10:22:51.796Z,57952
2019-05-28T10:23:51.734Z,60032
2019-05-28T10:24:51.800Z,61024
2019-05-28T10:25:51.816Z,63488
2019-05-28T10:26:51.801Z,62944
2019-05-28T10:28:00.940Z,64384
2019-05-28T10:28:51.743Z,67360
2019-05-28T10:29:51.801Z,77216
2019-05-28T10:30:51.802Z,101888
2019-05-28T10:31:51.807Z,146592
2019-05-28T10:32:51.829Z,149504
2019-05-28T10:33:51.806Z,151776
2019-05-28T10:35:03.419Z,152960
2019-05-28T10:35:51.792Z,158624
2019-05-28T10:36:51.845Z,162336
2019-05-28T10:37:51.739Z,156704
2019-05-28T10:38:51.722Z,152608
2019-05-28T10:39:51.764Z,154144
2019-05-28T10:40:51.797Z,159552
2019-05-28T10:41:51.733Z,158176
2019-05-28T10:42:51.801Z,148800
2019-05-28T10:43:51.719Z,150816
2019-05-28T10:44:51.728Z,151328
2019-05-28T10:45:51.904Z,148480
2019-05-28T10:46:51.756Z,142496
2019-05-28T10:47:52.533Z,132640
2019-05-28T10:48:51.820Z,128960
2019-05-28T10:49:51.787Z,135008
2019-05-28T10:50:51.813Z,139680
2019-05-28T10:51:51.751Z,139648
2019-05-28T10:52:51.759Z,70848
2019-05-28T10:53:51.824Z,61024
2019-05-28T10:54:51.813Z,58176
2019-05-28T10:55:51.811Z,55552
2019-05-28T10:56:51.893Z,55648
2019-05-28T10:57:51.763Z,59744
2019-05-28T10:58:51.740Z,135616
2019-05-28T10:59:51.833Z,63552
2019-05-28T11:00:51.815Z,78560
2019-05-28T11:01:51.812Z,67424
2019-05-28T11:02:51.729Z,73152
2019-05-28T11:03:51.701Z,78912
2019-05-28T11:04:51.786Z,76384
2019-05-28T11:05:51.821Z,77312
2019-05-28T11:06:52.494Z,100672
2019-05-28T11:07:51.762Z,105216
2019-05-28T11:08:51.846Z,73216
2019-05-28T11:09:51.745Z,76672
2019-05-28T11:10:51.758Z,74432
2019-05-28T11:11:51.824Z,106816
2019-05-28T11:12:51.823Z,100512
2019-05-28T11:13:53.379Z,74656
2019-05-28T11:14:51.761Z,67648
2019-05-28T11:15:51.835Z,67328
2019-05-28T11:16:51.778Z,74496
2019-05-28T11:17:51.843Z,70112
2019-05-28T11:18:51.769Z,71360
2019-05-28T11:19:51.841Z,75776
2019-05-28T11:20:51.846Z,72832
2019-05-28T11:21:51.773Z,70656
2019-05-28T11:22:51.768Z,62560
2019-05-28T11:23:51.777Z,59040
2019-05-28T11:24:51.841Z,55936
2019-05-28T11:25:51.765Z,52960
2019-05-28T11:26:51.810Z,50464
2019-05-28T11:27:51.814Z,48768
2019-05-28T11:28:51.848Z,47968
2019-05-28T11:29:51.718Z,47648
2019-05-28T11:30:51.769Z,47520
2019-05-28T11:31:51.765Z,47680
2019-05-28T11:32:51.736Z,47904
2019-05-28T11:33:51.765Z,48416
2019-05-28T11:34:51.752Z,50432
2019-05-28T11:35:51.852Z,53952
2019-05-28T11:37:08.042Z,56576
2019-05-28T11:37:51.785Z,57952
2019-05-28T11:38:51.794Z,58432
2019-05-28T11:39:51.855Z,56864
2019-05-28T11:40:51.915Z,54624
2019-05-28T11:41:51.876Z,52992
2019-05-28T11:42:51.789Z,51232
2019-05-28T11:43:51.863Z,48992
2019-05-28T11:44:51.909Z,46496
2019-05-28T11:45:51.856Z,44032
2019-05-28T11:46:51.790Z,41408
2019-05-28T11:47:51.863Z,38560
2019-05-28T11:48:51.803Z,35680
2019-05-28T11:49:51.864Z,32896
2019-05-28T11:50:51.871Z,30112
2019-05-28T11:51:51.877Z,27680
2019-05-28T11:52:51.889Z,25536
2019-05-28T11:53:51.864Z,23616
2019-05-28T11:54:51.800Z,21952
2019-05-28T11:55:51.777Z,20344
2019-05-28T11:56:51.743Z,19428
2019-05-28T11:57:51.877Z,18684
2019-05-28T11:58:51.785Z,17812
2019-05-28T11:59:51.823Z,16656
2019-05-28T12:00:51.771Z,15436
2019-05-28T12:01:51.867Z,14188
2019-05-28T12:02:51.875Z,12944
2019-05-28T12:03:51.792Z,11484
2019-05-28T12:05:51.809Z,8748
2019-05-28T12:06:51.815Z,7492
2019-05-28T12:07:52.335Z,5940
2019-05-28T12:08:51.814Z,5024
2019-05-28T12:09:51.901Z,4860
2019-05-28T12:10:51.886Z,5260
2019-05-28T12:11:51.819Z,6072
2019-05-28T12:12:51.887Z,6980
2019-05-28T12:13:51.878Z,7796
2019-05-28T12:14:51.815Z,8228
2019-05-28T12:15:51.948Z,8328
2019-05-28T12:16:51.904Z,8096
2019-05-28T12:17:51.912Z,7568
2019-05-28T12:18:51.884Z,7184
2019-05-28T12:19:51.827Z,6928
2019-05-28T12:20:51.820Z,6784
2019-05-28T12:21:51.827Z,6516
2019-05-28T12:23:08.760Z,6656
2019-05-28T12:23:51.922Z,6708
2019-05-28T12:24:51.896Z,6884
2019-05-28T12:25:51.804Z,7168
2019-05-28T12:26:51.881Z,7632
2019-05-28T12:27:51.808Z,8300
2019-05-28T12:28:51.744Z,8960
2019-05-28T12:29:52.555Z,9568
2019-05-28T12:30:51.820Z,10240
2019-05-28T12:31:51.810Z,10620
2019-05-28T12:32:51.759Z,10732
2019-05-28T12:33:51.760Z,11176
2019-05-28T12:34:51.865Z,11580
2019-05-28T12:35:51.892Z,12024
2019-05-28T12:36:51.896Z,12256
2019-05-28T12:37:51.910Z,13248
2019-05-28T12:38:51.831Z,14028
2019-05-28T12:39:51.967Z,14936
2019-05-28T12:40:51.915Z,15924
2019-05-28T12:42:01.593Z,16956
2019-05-28T12:42:51.903Z,17352
2019-05-28T12:43:52.263Z,17516
2019-05-28T12:45:08.347Z,17432
2019-05-28T12:45:51.819Z,17332
2019-05-28T12:46:51.898Z,17180
2019-05-28T12:48:07.091Z,17176
2019-05-28T12:48:51.821Z,16932
2019-05-28T12:49:51.870Z,17020
2019-05-28T12:50:51.893Z,17100
2019-05-28T12:51:51.885Z,17400
2019-05-28T12:52:51.898Z,17628
2019-05-28T12:53:51.851Z,18132
2019-05-28T12:54:51.842Z,18736
2019-05-28T12:55:51.842Z,19296
2019-05-28T12:56:51.837Z,20004
2019-05-28T12:57:51.940Z,19900
2019-05-28T12:58:51.930Z,19592
2019-05-28T12:59:51.926Z,18996
2019-05-28T13:00:51.864Z,18304
2019-05-28T13:01:51.848Z,17652
2019-05-28T13:02:51.914Z,17056
2019-05-28T13:03:52.169Z,16728
2019-05-28T13:04:51.921Z,16444
2019-05-28T13:05:51.828Z,16256
2019-05-28T13:06:51.815Z,16180
2019-05-28T13:08:07.292Z,16292
2019-05-28T13:08:51.821Z,16580
2019-05-28T13:09:51.853Z,16896
2019-05-28T13:10:51.840Z,17140
2019-05-28T13:11:51.867Z,17596
2019-05-28T13:12:51.913Z,18196
2019-05-28T13:13:51.855Z,18968
2019-05-28T13:14:51.914Z,19920
2019-05-28T13:15:51.800Z,20732
2019-05-28T13:16:51.806Z,22592
2019-05-28T13:17:52.269Z,23744